Nearby METAR Reports

Here are local weather reports from nearby weather stations and airports.

KHFD - Hartford/Brainar, Connecticut, USA
Distance from station: NE 5mi, 8km
Updated: Thu, 03/23/2017 3:53pm EDT
Clear
Clear
 Wind from WNW
Wind: WNW 15 mph , 24 km/h, Gust: 24 mph , 39 km/h
Temperature: 37°F , 3°C
Wind Chill: 28°F , -2°C
Dew Point: 1°F , -17°C
Humidity: 22%
Barometer: 30.49 inHg , 1032.5 hPa
Clouds: Clear
Visibility: 10 miles , 16 km
2017/03/23 19:53 KHFD 231953Z 29013G21KT 10SM CLR 03/M17 A3049 RMK AO2 SLP324 T00281172
KMMK - Meriden, Connecticut, USA
Distance from station: SSW 13mi, 21km
Updated: Thu, 03/23/2017 3:53pm EDT
Clear
Clear
 Wind from WNW
Wind: WNW 13 mph , 20 km/h, Gust: 29 mph , 46 km/h
Temperature: 37°F , 3°C
Wind Chill: 29°F , -2°C
Dew Point: -0°F , -18°C
Humidity: 20%
Barometer: 30.49 inHg , 1032.5 hPa
Clouds: Clear
Visibility: 10 miles , 16 km
2017/03/23 19:53 KMMK 231953Z AUTO 30011G25KT 10SM CLR 03/M18 A3049 RMK AO2 SLP328 T00331183 TSNO
 
KBDL - Windsor Locks, Connecticut, USA
Distance from station: N 17mi, 28km
Updated: Thu, 03/23/2017 3:51pm EDT
Clear
Clear
 Wind from NW
Wind: NW 13 mph , 20 km/h, Gust: 24 mph , 39 km/h
Temperature: 37°F , 3°C
Wind Chill: 29°F , -2°C
Dew Point: 1°F , -17°C
Humidity: 22%
Barometer: 30.48 inHg , 1032.2 hPa
Clouds: Clear
Visibility: 10 miles , 16 km
2017/03/23 19:51 KBDL 231951Z 32011G21KT 10SM CLR 03/M17 A3048 RMK AO2 SLP324 T00281172
KSNC - Chester, Connecticut, USA
Distance from station: SSE 24mi, 38km
Updated: Thu, 03/23/2017 3:55pm EDT
Clear
Clear
 Wind from WNW
Wind: WNW 13 mph , 20 km/h, Gust: 21 mph , 33 km/h
Temperature: 36°F , 2°C
Wind Chill: 27°F , -3°C
Dew Point: -6°F , -21°C
Humidity: 16%
Barometer: 30.47 inHg , 1031.8 hPa
Clouds: Clear
Visibility: 10 miles , 16 km
2017/03/23 19:55 KSNC 231955Z AUTO 30011G18KT 10SM CLR 02/M21 A3047 RMK AO2
 
KOXC - Oxford/Waterbury, Connecticut, USA
Distance from station: SW 26mi, 42km
Updated: Thu, 03/23/2017 3:50pm EDT
Clear
Clear
 Wind from NW
Wind: NW 9 mph , 15 km/h, Gust: 18 mph , 30 km/h
Temperature: 34°F , 1°C
Wind Chill: 27°F , -3°C
Dew Point: -0°F , -18°C
Humidity: 23%
Barometer: 30.48 inHg , 1032.2 hPa
Clouds: Clear
Visibility: 10 miles , 16 km
2017/03/23 19:50 KOXC 231950Z 31008G16KT 260V340 10SM SKC 01/M18 A3048
KIJD - Willimantic, Connecticut, USA
Distance from station: E 28mi, 45km
Updated: Thu, 03/23/2017 3:52pm EDT
Clear
Clear
 Wind from W
Wind: W 10 mph , 17 km/h, Gust: 21 mph , 33 km/h
Temperature: 39°F , 4°C
Wind Chill: 32°F , 0°C
Dew Point: 1°F , -17°C
Humidity: 20%
Barometer: 30.46 inHg , 1031.5 hPa
Clouds: Clear
Visibility: 10 miles , 16 km
2017/03/23 19:52 KIJD 231952Z AUTO 27009G18KT 10SM CLR 04/M17 A3046 RMK AO2 SLP319 T00391172
 
KHVN - New Haven/Tweed, Connecticut, USA
Distance from station: SSW 30mi, 48km
Updated: Thu, 03/23/2017 3:53pm EDT
Clear
Clear
 Wind from NW
Wind: NW 10 mph , 17 km/h, Gust: 20 mph , 31 km/h
Temperature: 37°F , 3°C
Wind Chill: 30°F , -1°C
Dew Point: 1°F , -17°C
Humidity: 22%
Barometer: 30.50 inHg , 1032.8 hPa
Clouds: Clear
Visibility: 10 miles , 16 km
2017/03/23 19:53 KHVN 231953Z 31009G17KT 10SM CLR 03/M17 A3050 RMK AO2 SLP328 T00331172
KBAF - Westfield, Massachusetts, USA
Distance from station: 0 33mi, 54km
Updated: Thu, 03/23/2017 3:53pm EDT
Clear
Clear
 Wind from NW
Wind: NW 14 mph , 22 km/h
Temperature: 36°F , 2°C
Wind Chill: 27°F , -3°C
Dew Point: 3°F , -16°C
Humidity: 25%
Barometer: 30.46 inHg , 1031.5 hPa
Clouds: Clear
Visibility: 10 miles , 16 km
2017/03/23 19:53 KBAF 231953Z 32012KT 10SM CLR 02/M16 A3046 RMK AO2 SLP324 T00221161
 
KCEF - Chicopee/Westove, Massachusetts, USA
Distance from station: NNE 37mi, 60km
Updated: Thu, 03/23/2017 3:58pm EDT
Few Clouds
Few Clouds
 Wind from W
Wind: W 10 mph , 17 km/h
Temperature: 37°F , 3°C
Wind Chill: 30°F , -1°C
Dew Point: -0°F , -18°C
Humidity: 20%
Barometer: 30.44 inHg , 1030.8 hPa
Clouds: Few Clouds
Visibility: 10 miles , 16 km
Cloud details: Few Clouds 25000 ft
2017/03/23 19:58 KCEF 231958Z 27009KT 10SM FEW250 03/M18 A3044 RMK AO2A SLP317 T00301183
KBDR - Bridgeport, Connecticut, USA
Distance from station: SSW 42mi, 67km
Updated: Thu, 03/23/2017 3:52pm EDT
Clear
Clear
 Wind from WNW
Wind: WNW 16 mph , 26 km/h, Gust: 24 mph , 39 km/h
Temperature: 43°F , 6°C
Wind Chill: 35°F , 2°C
Dew Point: -0°F , -18°C
Humidity: 16%
Barometer: 30.50 inHg , 1032.8 hPa
Clouds: Clear
Visibility: 10 miles , 16 km
2017/03/23 19:52 KBDR 231952Z 30014G21KT 10SM CLR 06/M18 A3050 RMK AO2 SLP329 T00561178
 
KGON - Groton/New Londo, Connecticut, USA
Distance from station: SE 42mi, 68km
Updated: Thu, 03/23/2017 3:56pm EDT
Clear
Clear
 Wind from WNW
Wind: WNW 14 mph , 22 km/h, Gust: 23 mph , 37 km/h
Temperature: 39°F , 4°C
Wind Chill: 31°F , -1°C
Dew Point: -2°F , -19°C
Humidity: 17%
Barometer: 30.47 inHg , 1031.8 hPa
Clouds: Clear
Visibility: 10 miles , 16 km
2017/03/23 19:56 KGON 231956Z 30012G20KT 10SM CLR 04/M19 A3047 RMK AO2 SLP316 T00441189
KDXR - Danbury, Connecticut, USA
Distance from station: WSW 45mi, 73km
Updated: Thu, 03/23/2017 3:56pm EDT
Clear
Clear
 Wind from varies
Wind: varies 7 mph , 11 km/h
Temperature: 37°F , 3°C
Wind Chill: 32°F , 0°C
Dew Point: -0°F , -18°C
Humidity: 20%
Barometer: 30.49 inHg , 1032.5 hPa
Clouds: Clear
Visibility: 10 miles , 16 km
2017/03/23 19:56 KDXR 231956Z VRB06KT 10SM CLR 03/M18 A3049 RMK AO2 T00331178